Time;durP1;ratioP1;P1;durP2;ratioP2;P2;SDS_P1;SDS_P2;PMS_P1;PMS_P2;Temp;Humidity;BMP_temperature;BMP_pressure;BME280_temperature;BME280_humidity;BME280_pressure;Samples;Min_cycle;Max_cycle;Signal;HPM_P1;HPM_P2
2023/04/24 00:02:23;;;;;;;2.70;2.40;;;;;;;8.93;100.00;95236.16;7392987;19;20746;-75
2023/04/24 00:04:51;;;;;;;2.30;2.10;;;;;;;9.16;100.00;95265.31;7393819;19;20436;-75
2023/04/24 00:07:19;;;;;;;2.53;2.20;;;;;;;8.96;100.00;95238.13;7394627;19;20351;-76
2023/04/24 00:09:46;;;;;;;3.60;2.97;;;;;;;8.94;100.00;95239.56;7395197;19;20399;-76
2023/04/24 00:12:13;;;;;;;2.20;2.00;;;;;;;8.95;100.00;95233.97;7393345;19;20400;-75
2023/04/24 00:14:40;;;;;;;2.50;2.40;;;;;;;9.18;100.00;95252.53;7394221;19;20755;-75
2023/04/24 00:17:07;;;;;;;2.50;2.30;;;;;;;9.00;100.00;95209.97;7394273;19;20380;-75
2023/04/24 00:19:34;;;;;;;5.30;3.60;;;;;;;9.08;100.00;95230.13;7395123;19;21016;-75
2023/04/24 00:22:02;;;;;;;12.27;7.13;;;;;;;9.10;100.00;95232.41;7393555;19;20393;-76
2023/04/24 00:24:29;;;;;;;19.13;17.20;;;;;;;8.70;100.00;95201.00;7394867;19;20417;-75
2023/04/24 00:26:56;;;;;;;6.90;6.30;;;;;;;8.91;100.00;95232.34;7393289;19;20386;-76
2023/04/24 00:29:23;;;;;;;5.07;4.63;;;;;;;8.87;100.00;95225.13;7394956;19;20396;-76
2023/04/24 00:31:50;;;;;;;2.90;2.57;;;;;;;8.59;100.00;95214.69;7392700;19;20833;-76
2023/04/24 00:34:18;;;;;;;2.50;2.30;;;;;;;8.29;100.00;95160.88;7394147;19;20430;-75
2023/04/24 00:36:46;;;;;;;5.10;2.90;;;;;;;8.57;100.00;95189.78;7393153;19;20365;-75
2023/04/24 00:39:12;;;;;;;8.80;4.17;;;;;;;8.87;100.00;95224.34;7394848;19;20846;-75
2023/04/24 00:41:39;;;;;;;4.10;3.70;;;;;;;8.56;100.00;95172.47;7393299;19;20373;-75
2023/04/24 00:44:07;;;;;;;4.43;3.87;;;;;;;8.85;100.00;95219.44;7392838;19;20954;-75
2023/04/24 00:46:34;;;;;;;3.67;3.30;;;;;;;8.77;100.00;95209.81;7393119;19;20401;-75
2023/04/24 00:49:02;;;;;;;4.17;3.80;;;;;;;9.05;100.00;95237.94;7395925;19;20392;-75
2023/04/24 00:51:30;;;;;;;4.13;3.83;;;;;;;9.04;100.00;95234.53;7392974;19;20365;-75
2023/04/24 00:53:57;;;;;;;3.20;2.90;;;;;;;8.88;100.00;95217.97;7393946;19;20425;-75
2023/04/24 00:56:24;;;;;;;3.00;2.80;;;;;;;8.94;100.00;95229.00;7393163;19;20484;-75
2023/04/24 00:58:51;;;;;;;3.43;3.13;;;;;;;8.83;100.00;95226.91;7394575;19;20409;-75
2023/04/24 01:01:23;;;;;;;13.90;12.90;;;;;;;9.13;100.00;95244.91;7392728;19;20367;-75
2023/04/24 01:03:51;;;;;;;7.97;7.33;;;;;;;8.99;100.00;95236.69;7393708;19;20439;-75
2023/04/24 01:06:19;;;;;;;9.67;8.13;;;;;;;8.99;100.00;95244.59;7392993;19;20387;-75
2023/04/24 01:08:47;;;;;;;2.80;2.60;;;;;;;8.74;100.00;95218.41;7391326;19;20925;-75
2023/04/24 01:11:14;;;;;;;3.37;2.90;;;;;;;8.86;100.00;95234.13;7394993;19;20417;-76
2023/04/24 01:13:41;;;;;;;2.70;2.50;;;;;;;9.01;100.00;95251.03;7399334;19;20397;-76
2023/04/24 01:16:09;;;;;;;2.93;2.73;;;;;;;8.93;100.00;95230.13;7399188;19;20473;-76
2023/04/24 01:18:38;;;;;;;3.60;3.30;;;;;;;9.00;100.00;95246.13;7399557;19;20370;-75
2023/04/24 01:21:07;;;;;;;6.17;5.57;;;;;;;9.12;100.00;95238.09;7400603;19;20818;-76
2023/04/24 01:23:34;;;;;;;4.53;4.13;;;;;;;9.21;100.00;95243.19;7397840;19;20953;-76
2023/04/24 01:26:01;;;;;;;4.33;4.03;;;;;;;9.14;100.00;95236.66;7397743;19;20440;-76
2023/04/24 01:28:29;;;;;;;3.87;3.57;;;;;;;9.08;100.00;95227.50;7398937;19;20376;-76
2023/04/24 01:30:56;;;;;;;3.30;3.07;;;;;;;9.21;100.00;95253.72;7400946;19;20381;-75
2023/04/24 01:33:24;;;;;;;2.90;2.50;;;;;;;9.08;100.00;95222.22;7398770;19;20401;-75
2023/04/24 01:35:51;;;;;;;3.23;2.93;;;;;;;9.06;100.00;95224.41;7401829;19;20495;-74
2023/04/24 01:38:17;;;;;;;3.27;3.00;;;;;;;8.76;100.00;95184.56;7413388;19;20373;-74
2023/04/24 01:40:44;;;;;;;3.10;2.90;;;;;;;9.08;100.00;95221.41;7407526;19;20401;-75
2023/04/24 01:43:12;;;;;;;4.17;3.50;;;;;;;8.94;100.00;95227.13;7398467;19;20413;-75
2023/04/24 01:45:39;;;;;;;4.13;2.50;;;;;;;8.96;100.00;95234.72;7398816;19;20421;-75
2023/04/24 01:48:06;;;;;;;3.07;2.83;;;;;;;9.11;100.00;95249.75;7400092;19;20340;-75
2023/04/24 01:50:33;;;;;;;3.60;3.30;;;;;;;8.61;100.00;95193.25;7401418;19;20369;-75
2023/04/24 01:53:00;;;;;;;4.67;3.30;;;;;;;8.94;100.00;95236.91;7398438;19;20449;-75
2023/04/24 01:55:27;;;;;;;3.17;2.80;;;;;;;8.91;100.00;95221.78;7398303;19;20436;-75
2023/04/24 01:57:55;;;;;;;3.03;2.77;;;;;;;8.81;100.00;95208.06;7398494;19;20372;-75
2023/04/24 02:00:24;;;;;;;6.43;4.50;;;;;;;8.56;100.00;95169.81;7399421;19;20928;-75
2023/04/24 02:02:52;;;;;;;2.47;2.27;;;;;;;8.82;100.00;95209.56;7398294;19;20400;-75
2023/04/24 02:05:19;;;;;;;4.27;3.90;;;;;;;8.83;100.00;95202.44;7398800;19;20400;-75
2023/04/24 02:07:46;;;;;;;4.23;3.70;;;;;;;8.80;100.00;95193.31;7398740;19;20402;-75
2023/04/24 02:10:13;;;;;;;3.70;3.40;;;;;;;9.02;100.00;95226.22;7399918;19;20425;-75
2023/04/24 02:12:41;;;;;;;3.00;2.67;;;;;;;9.00;100.00;95206.56;7398420;19;20400;-75
2023/04/24 02:15:09;;;;;;;2.93;2.73;;;;;;;8.94;100.00;95202.66;7398869;19;20529;-75
2023/04/24 02:17:36;;;;;;;3.03;2.73;;;;;;;8.99;100.00;95216.34;7398068;19;20917;-75
2023/04/24 02:20:05;;;;;;;2.13;1.93;;;;;;;8.99;100.00;95212.94;7401982;19;20432;-75
2023/04/24 02:22:32;;;;;;;2.83;1.90;;;;;;;8.95;100.00;95223.41;7397548;19;20377;-75
2023/04/24 02:25:01;;;;;;;5.20;2.50;;;;;;;8.87;100.00;95233.03;7394364;19;20428;-75
2023/04/24 02:27:28;;;;;;;2.97;2.77;;;;;;;8.59;100.00;95206.03;7397972;19;20372;-75
2023/04/24 02:29:56;;;;;;;4.20;3.10;;;;;;;8.78;100.00;95223.75;7398080;19;20460;-75
2023/04/24 02:32:23;;;;;;;3.00;2.80;;;;;;;8.87;100.00;95234.91;7397844;19;20397;-75
2023/04/24 02:34:50;;;;;;;3.57;2.30;;;;;;;8.79;100.00;95215.50;7395400;19;20421;-75
2023/04/24 02:37:16;;;;;;;3.17;2.47;;;;;;;8.99;100.00;95240.06;7397618;19;20377;-75
2023/04/24 02:39:43;;;;;;;2.53;2.33;;;;;;;8.96;100.00;95224.94;7396468;19;20404;-74
2023/04/24 02:42:10;;;;;;;2.27;2.03;;;;;;;8.99;100.00;95241.94;7398017;19;20756;-75
2023/04/24 02:44:37;;;;;;;2.30;2.10;;;;;;;8.82;100.00;95204.31;7396076;19;20397;-75
2023/04/24 02:47:04;;;;;;;2.70;2.50;;;;;;;8.79;100.00;95218.16;7397446;19;20385;-75
2023/04/24 02:49:31;;;;;;;2.73;2.50;;;;;;;8.69;100.00;95226.59;7395902;19;20373;-75
2023/04/24 02:51:58;;;;;;;3.57;3.00;;;;;;;8.54;100.00;95207.03;7397369;19;20377;-75
2023/04/24 02:54:25;;;;;;;4.33;3.07;;;;;;;8.60;100.00;95199.63;7395163;19;20500;-75
2023/04/24 02:56:52;;;;;;;3.07;2.80;;;;;;;8.46;100.00;95172.97;7398798;19;20389;-75
2023/04/24 02:59:19;;;;;;;2.87;2.67;;;;;;;8.70;100.00;95203.63;7396036;19;20376;-75
2023/04/24 03:01:46;;;;;;;3.13;2.30;;;;;;;8.87;100.00;95211.19;7397790;19;20672;-75
2023/04/24 03:04:13;;;;;;;3.10;2.27;;;;;;;8.75;100.00;95182.28;7396198;19;20377;-74
2023/04/24 03:06:40;;;;;;;2.33;2.13;;;;;;;8.72;100.00;95181.09;7398727;19;20380;-75
2023/04/24 03:09:07;;;;;;;2.43;2.30;;;;;;;8.93;100.00;95207.16;7396305;19;20435;-75
2023/04/24 03:11:34;;;;;;;2.50;2.30;;;;;;;8.97;100.00;95197.47;7398804;19;20337;-75
2023/04/24 03:14:01;;;;;;;5.90;3.27;;;;;;;8.88;100.00;95184.47;7395833;19;20408;-75
2023/04/24 03:16:28;;;;;;;4.83;2.50;;;;;;;8.89;100.00;95175.47;7397168;19;20370;-75
2023/04/24 03:18:55;;;;;;;3.10;2.50;;;;;;;8.94;100.00;95181.56;7395668;19;20372;-75
2023/04/24 03:21:26;;;;;;;3.13;2.93;;;;;;;8.49;100.00;95165.13;7397160;19;20394;-75
2023/04/24 03:23:53;;;;;;;3.00;2.80;;;;;;;8.59;100.00;95151.47;7394966;19;20376;-75
2023/04/24 03:26:20;;;;;;;3.97;3.57;;;;;;;8.76;100.00;95181.94;7396971;19;20888;-75
2023/04/24 03:29:02;;;;;;;3.23;3.00;;;;;;;8.91;100.00;95187.53;7395910;19;20404;-75
2023/04/24 03:31:29;;;;;;;5.50;3.10;;;;;;;8.73;100.00;95155.53;7394490;19;20376;-75
2023/04/24 03:33:56;;;;;;;4.73;3.20;;;;;;;8.98;100.00;95179.78;7393602;19;20417;-75
2023/04/24 03:36:23;;;;;;;3.90;3.57;;;;;;;8.75;100.00;95153.31;7393998;19;20432;-75
2023/04/24 03:38:50;;;;;;;3.00;2.80;;;;;;;8.65;100.00;95157.22;7395921;19;20368;-75
2023/04/24 03:41:17;;;;;;;4.20;3.20;;;;;;;8.78;100.00;95168.41;7396076;19;20349;-75
2023/04/24 03:43:48;;;;;;;4.00;3.70;;;;;;;8.82;100.00;95188.50;7395620;19;20400;-75
2023/04/24 03:46:15;;;;;;;4.57;3.70;;;;;;;9.02;100.00;95207.00;7392727;19;20444;-75
2023/04/24 03:48:52;;;;;;;3.23;2.33;;;;;;;9.06;100.00;95198.03;7396253;19;20402;-74
2023/04/24 03:51:22;;;;;;;2.47;2.27;;;;;;;8.92;100.00;95184.56;7394307;19;20409;-75
2023/04/24 03:53:53;;;;;;;3.40;2.63;;;;;;;8.93;100.00;95204.53;7395733;19;20393;-75
2023/04/24 03:56:22;;;;;;;3.37;3.17;;;;;;;8.95;100.00;95209.44;7397325;19;20381;-74
2023/04/24 03:58:48;;;;;;;3.10;2.13;;;;;;;8.75;100.00;95188.31;7415873;19;20376;-74
2023/04/24 04:01:16;;;;;;;2.70;2.50;;;;;;;8.86;100.00;95205.16;7406008;19;20465;-74
2023/04/24 04:03:57;;;;;;;1.93;1.83;;;;;;;8.89;100.00;95207.09;7395996;19;20718;-75
2023/04/24 04:06:26;;;;;;;3.63;2.40;;;;;;;8.75;100.00;95193.59;7394793;19;20369;-75
2023/04/24 04:08:54;;;;;;;2.80;2.60;;;;;;;8.54;100.00;95193.84;7393710;19;20385;-75
2023/04/24 04:11:21;;;;;;;5.83;3.17;;;;;;;8.69;100.00;95213.41;7396481;19;20368;-75
2023/04/24 04:13:49;;;;;;;3.63;2.40;;;;;;;8.30;100.00;95184.22;7393687;19;20412;-74
2023/04/24 04:16:19;;;;;;;3.90;2.97;;;;;;;8.52;100.00;95197.94;7394657;19;20365;-75
2023/04/24 04:18:48;;;;;;;2.53;2.33;;;;;;;8.50;100.00;95202.78;7393016;19;20396;-75
2023/04/24 04:21:15;;;;;;;3.00;2.37;;;;;;;8.38;100.00;95195.72;7394407;19;20944;-75
2023/04/24 04:23:43;;;;;;;2.60;2.40;;;;;;;8.26;100.00;95178.09;7393219;19;20369;-74
2023/04/24 04:26:19;;;;;;;2.40;2.20;;;;;;;8.36;100.00;95194.53;7393573;19;20439;-75
2023/04/24 04:29:03;;;;;;;3.20;2.40;;;;;;;8.19;100.00;95150.84;7394264;19;20407;-75
2023/04/24 04:31:31;;;;;;;1.80;1.70;;;;;;;8.46;100.00;95194.03;7392407;19;20876;-75
2023/04/24 04:34:02;;;;;;;2.30;2.10;;;;;;;8.49;100.00;95190.72;7393941;19;20967;-74
2023/04/24 04:36:32;;;;;;;4.33;2.03;;;;;;;8.66;100.00;95210.69;7393007;19;20368;-75
2023/04/24 04:39:08;;;;;;;2.47;2.27;;;;;;;8.46;100.00;95170.34;7394801;19;20372;-75
2023/04/24 04:41:46;;;;;;;2.17;2.03;;;;;;;8.66;100.00;95200.13;7393725;19;20376;-75
2023/04/24 04:44:13;;;;;;;5.07;2.67;;;;;;;8.66;100.00;95194.88;7395222;19;20384;-74
2023/04/24 04:46:41;;;;;;;3.30;3.00;;;;;;;8.78;100.00;95207.94;7400605;19;20379;-75
2023/04/24 04:49:28;;;;;;;3.23;3.00;;;;;;;8.85;100.00;95208.13;7400837;19;20480;-75
2023/04/24 04:51:55;;;;;;;2.20;2.10;;;;;;;8.70;100.00;95185.97;7401926;19;20408;-75
2023/04/24 04:54:24;;;;;;;2.57;1.83;;;;;;;8.81;100.00;95197.50;7400113;19;20506;-75
2023/04/24 04:56:51;;;;;;;2.20;2.07;;;;;;;9.02;100.00;95214.91;7402283;19;20476;-75
2023/04/24 04:59:19;;;;;;;2.40;2.20;;;;;;;8.99;100.00;95221.63;7400457;19;20710;-75
2023/04/24 05:01:48;;;;;;;2.03;1.43;;;;;;;8.92;100.00;95203.00;7401969;19;20376;-75
2023/04/24 05:04:16;;;;;;;2.13;1.90;;;;;;;9.04;100.00;95216.06;7399772;19;20979;-74
2023/04/24 05:06:43;;;;;;;2.23;2.13;;;;;;;8.79;100.00;95196.31;7402323;19;20384;-75
2023/04/24 05:09:10;;;;;;;2.00;1.90;;;;;;;8.97;100.00;95196.72;7400827;19;20418;-75
2023/04/24 05:11:44;;;;;;;1.93;1.83;;;;;;;9.04;100.00;95204.78;7402114;19;20928;-75
2023/04/24 05:14:12;;;;;;;2.23;2.00;;;;;;;9.00;100.00;95209.97;7400387;19;20377;-74
2023/04/24 05:16:40;;;;;;;2.77;2.50;;;;;;;9.19;100.00;95228.47;7401996;19;20376;-75
2023/04/24 05:19:08;;;;;;;2.70;2.50;;;;;;;9.32;100.00;95252.09;7400629;19;20815;-74
2023/04/24 05:21:39;;;;;;;2.57;1.93;;;;;;;9.04;100.00;95218.72;7402519;19;20365;-75
2023/04/24 05:24:07;;;;;;;2.20;2.00;;;;;;;9.12;100.00;95244.13;7400568;19;20752;-74
2023/04/24 05:26:55;;;;;;;2.70;2.23;;;;;;;9.12;100.00;95241.50;7399600;19;20926;-75
2023/04/24 05:29:27;;;;;;;2.03;1.80;;;;;;;9.17;100.00;95237.81;7398092;19;20603;-75
2023/04/24 05:31:54;;;;;;;3.50;2.30;;;;;;;9.32;100.00;95226.47;7399235;19;20900;-75
2023/04/24 05:34:22;;;;;;;2.23;2.03;;;;;;;9.36;100.00;95235.25;7399858;19;20412;-75
2023/04/24 05:36:53;;;;;;;2.77;2.20;;;;;;;9.50;100.00;95236.66;7399247;19;20375;-75
2023/04/24 05:39:20;;;;;;;2.60;2.40;;;;;;;9.63;100.00;95246.75;7400776;19;20400;-75
2023/04/24 05:41:47;;;;;;;7.13;2.47;;;;;;;9.33;100.00;95222.72;7398829;19;20925;-74
2023/04/24 05:44:14;;;;;;;2.50;2.30;;;;;;;9.23;100.00;95204.06;7401644;19;20396;-75
2023/04/24 05:46:41;;;;;;;3.23;2.03;;;;;;;9.12;100.00;95186.13;7399324;19;20404;-75
2023/04/24 05:49:09;;;;;;;2.37;2.17;;;;;;;9.57;100.00;95250.75;7400266;19;20400;-75
2023/04/24 05:51:36;;;;;;;3.87;2.03;;;;;;;9.65;100.00;95243.75;7398687;19;20373;-75
2023/04/24 05:54:03;;;;;;;4.00;2.30;;;;;;;9.66;100.00;95251.31;7400296;19;20380;-75
2023/04/24 05:56:30;;;;;;;4.10;3.70;;;;;;;9.44;100.00;95233.50;7398086;19;20853;-74
2023/04/24 05:58:59;;;;;;;3.00;2.03;;;;;;;9.56;100.00;95261.66;7400259;19;20401;-75
2023/04/24 06:01:26;;;;;;;3.13;2.87;;;;;;;9.19;100.00;95199.47;7398657;19;20372;-75
2023/04/24 06:04:04;;;;;;;4.30;3.30;;;;;;;9.43;100.00;95237.25;7397420;19;20435;-75
2023/04/24 06:06:32;;;;;;;3.63;2.43;;;;;;;9.49;100.00;95254.38;7398073;19;20710;-74
2023/04/24 06:08:59;;;;;;;2.03;1.73;;;;;;;9.46;100.00;95253.16;7397469;19;20948;-75
2023/04/24 06:11:27;;;;;;;2.70;1.83;;;;;;;9.46;100.00;95262.94;7398891;19;20364;-75
2023/04/24 06:13:54;;;;;;;3.10;2.47;;;;;;;9.34;100.00;95236.69;7398041;19;20372;-75
2023/04/24 06:16:50;;;;;;;3.00;2.53;;;;;;;9.58;100.00;95262.06;7397399;19;20403;-74
2023/04/24 06:19:29;;;;;;;4.30;3.20;;;;;;;9.55;100.00;95246.94;7398949;19;20364;-75
2023/04/24 06:21:56;;;;;;;7.50;2.20;;;;;;;9.60;100.00;95239.50;7397327;19;20393;-75
2023/04/24 06:24:27;;;;;;;3.57;3.33;;;;;;;9.87;100.00;95242.28;7399462;19;20388;-75
2023/04/24 06:26:54;;;;;;;3.30;3.10;;;;;;;10.01;100.00;95245.94;7397788;19;20396;-75
2023/04/24 06:29:21;;;;;;;2.77;2.57;;;;;;;10.21;100.00;95246.75;7398836;19;20386;-75
2023/04/24 06:31:49;;;;;;;2.20;1.90;;;;;;;10.36;100.00;95261.72;7397498;19;20397;-75
2023/04/24 06:34:16;;;;;;;1.63;1.53;;;;;;;10.44;100.00;95273.19;7399866;19;20416;-75
2023/04/24 06:36:43;;;;;;;5.53;4.50;;;;;;;10.26;100.00;95257.00;7397348;19;20381;-75
2023/04/24 06:39:10;;;;;;;2.60;1.83;;;;;;;10.23;100.00;95262.25;7400316;19;20373;-75
2023/04/24 06:41:37;;;;;;;7.13;2.57;;;;;;;10.13;100.00;95270.69;7396906;19;20377;-75
2023/04/24 06:44:04;;;;;;;4.97;2.03;;;;;;;9.89;100.00;95234.81;7397852;19;20794;-75
2023/04/24 06:46:31;;;;;;;2.67;2.47;;;;;;;10.13;100.00;95262.78;7394652;19;20495;-75
2023/04/24 06:48:58;;;;;;;3.13;2.50;;;;;;;10.18;100.00;95259.88;7398714;19;20999;-75
2023/04/24 06:51:26;;;;;;;3.20;2.20;;;;;;;10.36;100.00;95271.53;7396452;19;20922;-75
2023/04/24 06:53:53;;;;;;;6.70;2.80;;;;;;;10.37;100.00;95262.50;7398370;19;20380;-75
2023/04/24 06:56:20;;;;;;;2.13;1.93;;;;;;;10.29;100.00;95276.72;7396783;19;20446;-75
2023/04/24 06:58:48;;;;;;;3.17;2.00;;;;;;;10.47;100.00;95282.31;7397766;19;20401;-75
2023/04/24 07:01:14;;;;;;;1.97;1.77;;;;;;;10.51;100.00;95272.56;7396589;19;20432;-75
2023/04/24 07:03:41;;;;;;;2.00;1.90;;;;;;;10.34;100.00;95247.34;7398239;19;20389;-75
2023/04/24 07:06:12;;;;;;;2.13;1.80;;;;;;;10.38;100.00;95245.53;7395827;19;20912;-75
2023/04/24 07:08:39;;;;;;;4.73;1.60;;;;;;;10.52;100.00;95251.06;7396474;19;20377;-75
2023/04/24 07:11:06;;;;;;;3.07;1.67;;;;;;;10.71;100.00;95274.03;7396518;19;20428;-75
2023/04/24 07:13:35;;;;;;;4.70;2.03;;;;;;;10.45;100.00;95236.97;7397804;19;20762;-75
2023/04/24 07:16:02;;;;;;;2.00;1.90;;;;;;;10.48;100.00;95274.03;7397313;19;20433;-75
2023/04/24 07:18:29;;;;;;;3.00;1.90;;;;;;;10.38;100.00;95253.44;7397865;19;20420;-75
2023/04/24 07:20:57;;;;;;;1.50;1.30;;;;;;;10.56;100.00;95267.75;7396380;19;20787;-75
2023/04/24 07:23:24;;;;;;;1.57;1.30;;;;;;;10.73;100.00;95271.03;7394623;19;20898;-75
2023/04/24 07:25:51;;;;;;;1.70;1.60;;;;;;;10.53;100.00;95262.38;7394296;19;20432;-75
2023/04/24 07:28:18;;;;;;;2.37;1.60;;;;;;;10.45;100.00;95268.69;7394649;19;20446;-75
2023/04/24 07:30:45;;;;;;;3.27;1.57;;;;;;;10.48;100.00;95289.13;7395794;19;20376;-75
2023/04/24 07:33:13;;;;;;;1.10;1.00;;;;;;;10.52;100.00;95276.72;7395955;19;20353;-75
2023/04/24 07:35:40;;;;;;;1.40;1.07;;;;;;;10.20;100.00;95247.06;7396144;19;20409;-75
2023/04/24 07:38:07;;;;;;;3.17;1.20;;;;;;;10.17;100.00;95247.78;7395864;19;20407;-75
2023/04/24 07:40:33;;;;;;;2.00;1.67;;;;;;;10.23;100.00;95251.66;7395946;19;20438;-75
2023/04/24 07:43:00;;;;;;;2.10;1.27;;;;;;;10.20;100.00;95268.19;7395928;19;20426;-75
2023/04/24 07:45:28;;;;;;;1.60;1.40;;;;;;;10.34;100.00;95284.34;7396340;19;20424;-75
2023/04/24 07:47:54;;;;;;;1.57;1.03;;;;;;;10.12;100.00;95266.53;7395813;19;20349;-75
2023/04/24 07:50:22;;;;;;;2.70;1.40;;;;;;;10.20;100.00;95289.31;7395530;19;20372;-74
2023/04/24 07:52:49;;;;;;;1.90;1.30;;;;;;;9.70;100.00;95254.03;7394490;19;20401;-75
2023/04/24 07:55:16;;;;;;;1.60;1.50;;;;;;;9.72;100.00;95284.22;7395046;19;20389;-75
2023/04/24 07:57:43;;;;;;;2.13;1.30;;;;;;;9.85;100.00;95300.72;7406603;19;20411;-74
2023/04/24 08:00:10;;;;;;;1.47;0.97;;;;;;;9.50;100.00;95255.88;7427997;19;20361;-74
2023/04/24 08:02:38;;;;;;;1.20;1.10;;;;;;;9.73;100.00;95293.69;7404961;19;20880;-75
2023/04/24 08:05:06;;;;;;;2.50;1.10;;;;;;;9.86;100.00;95267.91;7394552;19;20401;-75
2023/04/24 08:07:35;;;;;;;1.33;1.23;;;;;;;9.82;100.00;95274.25;7394319;19;20380;-75
2023/04/24 08:10:02;;;;;;;2.10;1.67;;;;;;;10.11;100.00;95310.66;7397192;19;20736;-75
2023/04/24 08:12:29;;;;;;;1.77;1.67;;;;;;;9.53;100.00;95251.78;7394592;19;20396;-75
2023/04/24 08:14:56;;;;;;;2.10;1.60;;;;;;;9.84;100.00;95285.22;7394923;19;20465;-75
2023/04/24 08:17:23;;;;;;;1.33;1.20;;;;;;;10.35;100.00;95317.56;7394179;19;20593;-75
2023/04/24 08:19:52;;;;;;;1.70;1.47;;;;;;;10.34;100.00;95294.91;7394717;19;20404;-76
2023/04/24 08:22:19;;;;;;;1.60;1.30;;;;;;;10.49;100.00;95301.22;7394423;19;20352;-76
2023/04/24 08:24:46;;;;;;;2.27;1.50;;;;;;;10.56;100.00;95325.13;7395007;19;20503;-76
2023/04/24 08:27:12;;;;;;;1.70;1.60;;;;;;;10.62;100.00;95311.28;7392629;19;20429;-75
2023/04/24 08:29:39;;;;;;;4.60;1.40;;;;;;;10.67;100.00;95320.78;7392552;19;20839;-75
2023/04/24 08:32:09;;;;;;;3.10;1.80;;;;;;;10.36;100.00;95316.44;7392624;19;20405;-75
2023/04/24 08:34:36;;;;;;;1.60;1.50;;;;;;;10.53;100.00;95305.44;7394851;19;20952;-75
2023/04/24 08:37:03;;;;;;;4.13;1.80;;;;;;;10.70;100.00;95341.25;7396276;19;20370;-76
2023/04/24 08:39:30;;;;;;;1.30;1.20;;;;;;;10.88;100.00;95275.44;7395445;19;20731;-75
2023/04/24 08:42:05;;;;;;;4.43;1.60;;;;;;;10.81;100.00;95297.22;7394727;19;20451;-75
2023/04/24 08:44:36;;;;;;;1.93;1.30;;;;;;;10.75;100.00;95301.28;7392722;19;20423;-75
2023/04/24 08:47:04;;;;;;;1.53;1.43;;;;;;;10.61;100.00;95315.03;7393995;19;20408;-75
2023/04/24 08:49:31;;;;;;;1.17;1.07;;;;;;;10.75;100.00;95313.75;7392452;19;20460;-75
2023/04/24 08:51:59;;;;;;;2.10;1.37;;;;;;;11.09;100.00;95317.34;7394521;19;20439;-75
2023/04/24 08:54:26;;;;;;;1.37;1.27;;;;;;;11.16;100.00;95325.38;7392398;19;20412;-75
2023/04/24 08:56:58;;;;;;;1.90;1.63;;;;;;;11.29;100.00;95341.84;7395080;19;20442;-75
2023/04/24 08:59:26;;;;;;;1.37;1.27;;;;;;;10.95;100.00;95323.16;7393553;19;20388;-75
2023/04/24 09:01:54;;;;;;;1.67;1.27;;;;;;;11.20;100.00;95342.84;7394464;19;20956;-76
2023/04/24 09:04:24;;;;;;;1.60;1.50;;;;;;;11.46;100.00;95363.28;7392297;19;20416;-75
2023/04/24 09:06:56;;;;;;;2.07;1.30;;;;;;;11.47;100.00;95358.75;7393693;19;20784;-75
2023/04/24 09:09:25;;;;;;;1.50;1.40;;;;;;;11.12;100.00;95329.88;7393136;19;20376;-75
2023/04/24 09:11:55;;;;;;;1.20;1.10;;;;;;;11.53;100.00;95373.97;7395891;19;20359;-75
2023/04/24 09:14:23;;;;;;;1.20;1.10;;;;;;;11.49;100.00;95370.53;7392322;19;20407;-75
2023/04/24 09:16:51;;;;;;;2.20;1.50;;;;;;;11.13;100.00;95350.66;7394817;19;20380;-75
2023/04/24 09:19:17;;;;;;;1.43;1.33;;;;;;;10.83;100.00;95342.63;7392811;19;20927;-75
2023/04/24 09:21:48;;;;;;;1.80;1.50;;;;;;;11.08;100.00;95384.56;7391658;19;20392;-75
2023/04/24 09:24:17;;;;;;;6.10;1.27;;;;;;;10.75;100.00;95358.69;7393878;19;20365;-75
2023/04/24 09:26:45;;;;;;;1.80;1.53;;;;;;;10.79;100.00;95360.28;7390673;19;20380;-75
2023/04/24 09:29:16;;;;;;;1.50;1.40;;;;;;;11.23;100.00;95368.59;7392714;19;20940;-75
2023/04/24 09:31:44;;;;;;;1.87;1.17;;;;;;;11.31;100.00;95364.19;7391668;19;20836;-75
2023/04/24 09:34:12;;;;;;;3.50;1.40;;;;;;;11.17;100.00;95377.19;7400723;19;20417;-75
2023/04/24 09:36:43;;;;;;;1.30;1.20;;;;;;;11.06;100.00;95349.78;7399312;19;20397;-75
2023/04/24 09:39:13;;;;;;;1.87;1.73;;;;;;;11.19;100.00;95364.34;7402241;19;20341;-75
2023/04/24 09:41:57;;;;;;;1.60;1.50;;;;;;;11.26;100.00;95377.72;7400808;19;20360;-75
2023/04/24 09:44:26;;;;;;;1.77;1.67;;;;;;;11.12;100.00;95337.81;7400897;19;20412;-75
2023/04/24 09:46:55;;;;;;;1.90;1.80;;;;;;;11.44;100.00;95357.56;7399848;19;20353;-75
2023/04/24 09:49:24;;;;;;;1.57;1.47;;;;;;;11.82;100.00;95375.19;7398427;19;20432;-75
2023/04/24 09:51:52;;;;;;;2.20;2.00;;;;;;;11.24;100.00;95348.19;7399833;19;20437;-75
2023/04/24 09:54:21;;;;;;;1.67;1.47;;;;;;;11.06;100.00;95378.88;7397759;19;20435;-75
2023/04/24 09:56:50;;;;;;;1.57;1.47;;;;;;;10.73;100.00;95359.03;7399281;19;20695;-75
2023/04/24 09:59:18;;;;;;;2.03;1.57;;;;;;;10.45;100.00;95375.13;7398329;19;20429;-75
2023/04/24 10:01:48;;;;;;;2.07;1.97;;;;;;;10.54;100.00;95390.78;7401589;19;20341;-75
2023/04/24 10:04:24;;;;;;;1.50;1.40;;;;;;;10.74;100.00;95400.22;7397821;19;20780;-75
2023/04/24 10:06:53;;;;;;;3.93;2.17;;;;;;;10.78;100.00;95405.56;7398472;19;20408;-75
2023/04/24 10:09:23;;;;;;;1.60;1.50;;;;;;;11.11;100.00;95402.41;7398779;19;20380;-75
2023/04/24 10:11:51;;;;;;;2.90;1.97;;;;;;;11.05;100.00;95390.56;7401489;19;20384;-75
2023/04/24 10:14:21;;;;;;;1.73;1.63;;;;;;;10.55;100.00;95350.81;7397770;19;20430;-75
2023/04/24 10:16:49;;;;;;;1.70;1.60;;;;;;;10.78;100.00;95390.47;7399999;19;20787;-75
2023/04/24 10:19:19;;;;;;;1.53;1.40;;;;;;;10.62;100.00;95385.28;7399443;19;20380;-75
2023/04/24 10:21:47;;;;;;;2.13;1.73;;;;;;;10.82;100.00;95401.91;7396732;19;20372;-75
2023/04/24 10:24:16;;;;;;;1.60;1.50;;;;;;;11.06;100.00;95407.97;7399607;19;20448;-75
2023/04/24 10:26:45;;;;;;;2.30;1.67;;;;;;;11.23;100.00;95410.19;7397305;19;20392;-75
2023/04/24 10:29:15;;;;;;;2.07;1.37;;;;;;;11.39;100.00;95412.69;7398646;19;20372;-75
2023/04/24 10:31:45;;;;;;;2.33;1.50;;;;;;;11.24;100.00;95383.38;7398483;19;20412;-75
2023/04/24 10:34:15;;;;;;;2.50;1.77;;;;;;;11.14;100.00;95413.03;7406190;19;20369;-75
2023/04/24 10:36:48;;;;;;;1.97;1.80;;;;;;;11.01;100.00;95374.66;7398551;19;20417;-75
2023/04/24 10:39:16;;;;;;;1.63;1.20;;;;;;;11.00;100.00;95386.34;7400007;19;20389;-75
2023/04/24 10:41:43;;;;;;;1.50;1.33;;;;;;;11.00;100.00;95388.22;7397944;19;20389;-75
2023/04/24 10:44:13;;;;;;;2.00;1.80;;;;;;;11.51;100.00;95412.53;7397932;19;20784;-75
2023/04/24 10:46:44;;;;;;;1.47;1.37;;;;;;;11.88;100.00;95417.25;7396959;19;20370;-75
2023/04/24 10:49:12;;;;;;;1.57;1.47;;;;;;;11.93;100.00;95416.97;7399508;19;20389;-75
2023/04/24 10:51:50;;;;;;;2.10;2.00;;;;;;;12.24;100.00;95423.81;7397796;19;20381;-75
2023/04/24 10:54:41;;;;;;;5.93;2.30;;;;;;;11.92;100.00;95415.44;7396066;19;20774;-75
2023/04/24 10:57:20;;;;;;;1.57;1.47;;;;;;;11.60;100.00;95418.31;7426672;19;20388;-74
2023/04/24 10:59:48;;;;;;;1.77;1.67;;;;;;;11.57;100.00;95418.28;7425786;19;20368;-75
2023/04/24 11:02:17;;;;;;;3.23;2.70;;;;;;;11.52;100.00;95414.06;7399107;19;20931;-75
2023/04/24 11:04:47;;;;;;;4.40;2.33;;;;;;;11.31;100.00;95413.69;7398247;19;20412;-75
2023/04/24 11:07:14;;;;;;;2.47;1.50;;;;;;;11.17;100.00;95409.69;7395689;19;20461;-75
2023/04/24 11:09:42;;;;;;;2.00;1.80;;;;;;;11.46;100.00;95421.50;7397296;19;20895;-75
2023/04/24 11:12:12;;;;;;;2.07;1.87;;;;;;;11.50;100.00;95426.88;7395860;19;20388;-75
2023/04/24 11:14:58;;;;;;;1.77;1.67;;;;;;;11.47;100.00;95423.03;7396455;19;20424;-75
2023/04/24 11:17:30;;;;;;;1.67;1.57;;;;;;;11.60;100.00;95423.63;7395923;19;20388;-75
2023/04/24 11:20:07;;;;;;;1.80;1.70;;;;;;;11.39;100.00;95399.47;7397981;19;20745;-75
2023/04/24 11:22:54;;;;;;;9.90;7.50;;;;;;;11.41;100.00;95384.00;7399150;19;20363;-75
2023/04/24 11:25:24;;;;;;;3.80;1.90;;;;;;;11.76;100.00;95420.84;7394366;19;20596;-75
2023/04/24 11:28:03;;;;;;;1.60;1.50;;;;;;;11.54;100.00;95425.81;7395227;19;20372;-75
2023/04/24 11:30:31;;;;;;;3.30;2.30;;;;;;;11.16;100.00;95386.22;7397200;19;20391;-76
2023/04/24 11:33:03;;;;;;;8.80;5.17;;;;;;;11.08;100.00;95382.69;7398827;19;20747;-75
2023/04/24 11:35:37;;;;;;;6.90;2.20;;;;;;;10.94;100.00;95400.97;7394962;19;20427;-75
2023/04/24 11:38:05;;;;;;;3.37;1.87;;;;;;;10.95;100.00;95424.44;7396354;19;20391;-75